Terminal Aerodrome Forecast
Issued by NWS

Home | Current Version | Previous Version | Text Only | Print | Product List | Glossary On
Versions: 1 2 3 4 5 6 7 8 9 10 11 12 13 14
755
FTUS42 KMLB 261721
TAFTIX
TAF
KTIX 261721Z 2618/2718 11012KT P6SM VCSH SCT040
     FM270000 17004KT P6SM SKC=

USA.gov is the U.S. government's official web portal to all federal, state and local government web resources and services.